createdAt,value
2023-04-20T00:00:58.021Z,19.77
2023-04-20T00:03:26.694Z,21.87
2023-04-20T00:05:54.867Z,19.17
2023-04-20T00:08:21.887Z,19.47
2023-04-20T00:10:48.903Z,23.23
2023-04-20T00:13:16.672Z,21.43
2023-04-20T00:15:43.599Z,21.63
2023-04-20T00:18:13.437Z,18.97
2023-04-20T00:20:40.280Z,21.23
2023-04-20T00:23:07.779Z,17.83
2023-04-20T00:25:36.003Z,18.03
2023-04-20T00:28:06.160Z,20.63
2023-04-20T00:30:33.170Z,19.90
2023-04-20T00:33:03.433Z,22.40
2023-04-20T00:35:30.537Z,20.93
2023-04-20T00:37:57.268Z,25.23
2023-04-20T00:40:24.176Z,19.97
2023-04-20T00:42:52.026Z,22.40
2023-04-20T00:45:18.922Z,20.97
2023-04-20T00:47:48.922Z,18.23
2023-04-20T00:50:16.179Z,21.50
2023-04-20T00:52:46.855Z,18.50
2023-04-20T00:55:15.792Z,21.13
2023-04-20T00:57:49.150Z,21.10
2023-04-20T01:00:16.610Z,20.33
2023-04-20T01:02:43.575Z,20.57
2023-04-20T01:05:11.004Z,21.33
2023-04-20T01:07:38.011Z,23.03
2023-04-20T01:10:07.486Z,17.10
2023-04-20T01:12:34.987Z,19.40
2023-04-20T01:21:22.999Z,20.27
2023-04-20T01:23:50.135Z,21.07
2023-04-20T01:26:19.007Z,19.13
2023-04-20T01:28:46.606Z,19.13
2023-04-20T01:31:14.747Z,22.07
2023-04-20T01:33:42.109Z,20.60
2023-04-20T01:36:10.261Z,19.30
2023-04-20T01:38:38.054Z,18.43
2023-04-20T01:41:07.852Z,16.50
2023-04-20T01:43:38.300Z,16.73
2023-04-20T01:46:05.856Z,21.17
2023-04-20T01:48:33.525Z,22.00
2023-04-20T01:51:01.623Z,17.03
2023-04-20T01:53:28.679Z,16.97
2023-04-20T01:55:55.534Z,17.63
2023-04-20T01:58:22.317Z,20.33
2023-04-20T02:00:49.369Z,15.43
2023-04-20T02:03:16.581Z,15.87
2023-04-20T02:05:43.822Z,17.17
2023-04-20T02:08:12.847Z,16.13
2023-04-20T02:10:41.787Z,18.53
2023-04-20T02:13:14.240Z,20.73
2023-04-20T02:15:42.180Z,20.43
2023-04-20T02:18:09.631Z,17.33
2023-04-20T02:20:36.515Z,16.43
2023-04-20T02:23:03.326Z,20.10
2023-04-20T02:25:30.240Z,17.43
2023-04-20T02:27:59.314Z,17.17
2023-04-20T02:30:26.328Z,17.90
2023-04-20T02:32:53.309Z,20.97
2023-04-20T02:35:20.364Z,15.07
2023-04-20T02:37:48.515Z,16.73
2023-04-20T02:40:16.080Z,15.53
2023-04-20T02:42:43.029Z,20.80
2023-04-20T02:45:11.108Z,19.60
2023-04-20T02:47:38.172Z,18.13
2023-04-20T02:50:05.725Z,20.17
2023-04-20T02:52:34.859Z,13.90
2023-04-20T02:55:01.764Z,16.47
2023-04-20T02:57:28.906Z,20.67
2023-04-20T02:59:56.577Z,22.63
2023-04-20T03:02:24.567Z,17.83
2023-04-20T03:04:51.801Z,18.00
2023-04-20T03:07:18.907Z,15.83
2023-04-20T03:09:46.121Z,20.50
2023-04-20T03:12:15.005Z,14.97
2023-04-20T03:14:41.837Z,16.83
2023-04-20T03:17:11.501Z,16.50
2023-04-20T03:19:38.219Z,19.63
2023-04-20T03:22:05.424Z,19.13
2023-04-20T03:24:32.227Z,15.73
2023-04-20T03:27:00.022Z,16.00
2023-04-20T03:29:27.760Z,17.33
2023-04-20T03:31:54.688Z,16.90
2023-04-20T03:34:22.895Z,16.53
2023-04-20T03:36:49.846Z,17.60
2023-04-20T03:39:17.240Z,16.43
2023-04-20T03:41:44.525Z,15.60
2023-04-20T03:44:11.354Z,15.30
2023-04-20T03:46:41.054Z,16.03
2023-04-20T03:49:08.125Z,19.53
2023-04-20T03:51:40.610Z,17.10
2023-04-20T03:54:08.547Z,16.17
2023-04-20T03:56:35.464Z,16.83
2023-04-20T03:59:03.440Z,21.20
2023-04-20T04:01:32.407Z,20.73
2023-04-20T04:03:59.624Z,23.30
2023-04-20T04:06:28.321Z,20.43
2023-04-20T04:08:56.328Z,19.43
2023-04-20T04:11:23.261Z,18.57
2023-04-20T04:13:52.151Z,18.03
2023-04-20T04:16:18.948Z,14.87
2023-04-20T04:18:45.839Z,16.50
2023-04-20T04:21:13.901Z,19.43
2023-04-20T04:23:42.878Z,16.33
2023-04-20T04:26:12.123Z,17.37
2023-04-20T04:28:40.532Z,20.50
2023-04-20T04:31:08.275Z,17.93
2023-04-20T04:33:35.301Z,15.30
2023-04-20T04:36:02.632Z,16.17
2023-04-20T04:38:31.610Z,18.10
2023-04-20T04:40:58.581Z,17.30
2023-04-20T04:43:25.742Z,17.87
2023-04-20T04:45:53.497Z,18.87
2023-04-20T04:48:20.642Z,19.60
2023-04-20T04:50:48.650Z,16.10
2023-04-20T04:53:15.711Z,16.20
2023-04-20T04:55:42.519Z,23.77
2023-04-20T04:58:09.503Z,20.20
2023-04-20T05:00:36.372Z,19.80
2023-04-20T05:03:04.071Z,20.23
2023-04-20T05:05:32.214Z,18.97
2023-04-20T05:07:59.115Z,18.37
2023-04-20T05:10:27.232Z,21.57
2023-04-20T05:12:54.332Z,18.63
2023-04-20T05:15:21.175Z,14.37
2023-04-20T05:17:49.733Z,18.20
2023-04-20T05:20:16.796Z,18.50
2023-04-20T05:22:44.074Z,15.67
2023-04-20T05:25:13.771Z,16.63
2023-04-20T05:27:40.847Z,18.47
2023-04-20T05:30:19.487Z,16.57
2023-04-20T05:32:50.145Z,16.97
2023-04-20T05:35:18.420Z,20.57
2023-04-20T05:37:45.480Z,19.63
2023-04-20T05:40:12.438Z,16.30
2023-04-20T05:42:39.422Z,15.07
2023-04-20T05:45:07.126Z,16.00
2023-04-20T05:47:34.089Z,19.07
2023-04-20T05:50:00.935Z,15.57
2023-04-20T05:52:27.796Z,19.13
2023-04-20T05:54:55.932Z,17.20
2023-04-20T05:57:24.485Z,16.63
2023-04-20T05:59:51.688Z,21.87
2023-04-20T06:02:24.376Z,18.57
2023-04-20T06:04:51.668Z,15.50
2023-04-20T06:07:18.640Z,13.32
2023-04-20T06:09:45.503Z,14.70
2023-04-20T06:12:13.525Z,16.87
2023-04-20T06:14:40.503Z,18.95
2023-04-20T06:17:07.585Z,19.33
2023-04-20T06:19:34.295Z,14.30
2023-04-20T06:22:05.337Z,14.85
2023-04-20T06:24:32.265Z,14.93
2023-04-20T06:26:59.100Z,16.67
2023-04-20T06:29:26.241Z,14.98
2023-04-20T06:31:53.292Z,16.08
2023-04-20T06:34:20.765Z,15.43
2023-04-20T06:36:47.717Z,15.40
2023-04-20T06:39:17.489Z,17.58
2023-04-20T06:41:44.684Z,18.98
2023-04-20T06:44:11.641Z,24.63
2023-04-20T06:46:38.577Z,19.80
2023-04-20T06:49:05.596Z,16.88
2023-04-20T06:51:32.820Z,17.60
2023-04-20T06:53:59.754Z,18.35
2023-04-20T06:56:26.551Z,18.08
2023-04-20T06:58:53.277Z,18.52
2023-04-20T07:01:20.314Z,15.77
2023-04-20T07:03:47.378Z,18.08
2023-04-20T07:06:16.987Z,15.85
2023-04-20T07:08:44.912Z,17.70
2023-04-20T07:11:11.916Z,15.07
2023-04-20T07:13:38.768Z,12.32
2023-04-20T07:16:06.591Z,17.13
2023-04-20T07:18:35.459Z,11.25
2023-04-20T07:21:02.760Z,16.30
2023-04-20T07:23:29.463Z,13.90
2023-04-20T07:25:56.356Z,17.40
2023-04-20T07:28:23.200Z,17.55
2023-04-20T07:30:50.113Z,18.40
2023-04-20T07:33:18.171Z,19.33
2023-04-20T07:35:45.005Z,21.85
2023-04-20T07:38:11.903Z,13.18
2023-04-20T07:40:38.655Z,20.13
2023-04-20T07:43:06.417Z,10.63
2023-04-20T07:45:34.067Z,16.52
2023-04-20T07:48:02.467Z,12.40
2023-04-20T07:50:29.480Z,15.02
2023-04-20T07:52:56.330Z,20.20
2023-04-20T07:55:23.139Z,11.02
2023-04-20T07:57:50.547Z,15.18
2023-04-20T08:00:18.092Z,10.93
2023-04-20T08:02:44.949Z,13.35
2023-04-20T08:05:12.484Z,23.73
2023-04-20T08:07:39.988Z,11.18
2023-04-20T08:10:08.279Z,13.77
2023-04-20T08:12:35.683Z,12.73
2023-04-20T08:15:06.370Z,14.45
2023-04-20T08:17:35.377Z,11.13
2023-04-20T08:20:02.270Z,21.00
2023-04-20T08:22:30.277Z,12.05
2023-04-20T08:24:57.933Z,18.33
2023-04-20T08:27:25.624Z,13.13
2023-04-20T08:29:52.614Z,14.05
2023-04-20T08:32:22.679Z,15.82
2023-04-20T08:34:50.617Z,17.27
2023-04-20T08:37:17.610Z,23.23
2023-04-20T08:39:44.674Z,12.98
2023-04-20T08:42:11.691Z,11.80
2023-04-20T08:44:38.733Z,13.60
2023-04-20T08:47:05.842Z,15.30
2023-04-20T08:49:33.938Z,10.82
2023-04-20T08:52:01.104Z,14.10
2023-04-20T08:54:28.171Z,21.88
2023-04-20T08:56:54.976Z,16.77
2023-04-20T08:59:21.859Z,19.83
2023-04-20T09:01:49.733Z,13.25
2023-04-20T09:04:21.848Z,10.23
2023-04-20T09:06:50.752Z,15.48
2023-04-20T09:09:18.946Z,14.75
2023-04-20T09:11:46.422Z,17.77
2023-04-20T09:14:19.112Z,11.77
2023-04-20T09:16:53.873Z,12.02
2023-04-20T09:19:25.026Z,13.40
2023-04-20T09:21:53.593Z,15.02
2023-04-20T09:24:23.090Z,13.75
2023-04-20T09:26:50.625Z,15.80
2023-04-20T09:29:19.546Z,21.60
2023-04-20T09:31:48.196Z,18.13
2023-04-20T09:34:15.814Z,16.17
2023-04-20T09:36:50.224Z,10.77
2023-04-20T09:39:22.188Z,13.90
2023-04-20T09:41:51.137Z,12.43
2023-04-20T09:44:19.923Z,13.55
2023-04-20T09:46:47.141Z,14.07
2023-04-20T09:49:15.144Z,12.43
2023-04-20T09:51:45.314Z,11.23
2023-04-20T09:54:14.047Z,15.85
2023-04-20T09:56:41.557Z,14.02
2023-04-20T09:59:08.483Z,8.65
2023-04-20T10:01:38.041Z,13.07
2023-04-20T10:04:09.408Z,14.13
2023-04-20T10:06:37.735Z,15.88
2023-04-20T10:09:08.931Z,10.45
2023-04-20T10:11:53.354Z,8.93
2023-04-20T10:14:25.733Z,6.47
2023-04-20T10:17:09.644Z,11.98
2023-04-20T10:19:44.633Z,15.25
2023-04-20T10:22:14.481Z,12.88
2023-04-20T10:24:41.461Z,11.85
2023-04-20T10:27:22.122Z,10.70
2023-04-20T10:29:50.236Z,12.88
2023-04-20T10:32:24.661Z,19.58
2023-04-20T10:35:10.185Z,14.73
2023-04-20T10:37:51.174Z,8.50
2023-04-20T10:40:27.196Z,13.10
2023-04-20T10:42:54.256Z,7.13
2023-04-20T10:45:21.994Z,9.85
2023-04-20T10:47:49.296Z,10.52
2023-04-20T10:50:18.279Z,5.15
2023-04-20T10:52:45.440Z,13.23
2023-04-20T10:55:25.897Z,5.82
2023-04-20T10:57:54.081Z,8.73
2023-04-20T11:00:26.668Z,11.10
2023-04-20T11:02:56.844Z,11.35
2023-04-20T11:05:27.146Z,9.60
2023-04-20T11:07:55.222Z,9.25
2023-04-20T11:10:40.964Z,9.15
2023-04-20T11:13:19.019Z,14.98
2023-04-20T11:15:45.883Z,7.78
2023-04-20T11:18:15.714Z,7.05
2023-04-20T11:20:53.168Z,7.50
2023-04-20T11:23:21.431Z,7.30
2023-04-20T11:25:56.768Z,8.32
2023-04-20T11:28:24.173Z,6.18
2023-04-20T11:30:51.262Z,11.25
2023-04-20T11:33:29.052Z,9.77
2023-04-20T11:35:58.153Z,9.13
2023-04-20T11:38:33.026Z,7.35
2023-04-20T11:41:07.972Z,10.07
2023-04-20T11:43:36.119Z,7.72
2023-04-20T11:46:03.302Z,4.80
2023-04-20T11:48:33.023Z,6.78
2023-04-20T11:50:59.960Z,6.32
2023-04-20T11:53:26.882Z,5.70
2023-04-20T11:55:54.870Z,6.65
2023-04-20T11:58:21.716Z,7.03
2023-04-20T12:00:48.681Z,11.18
2023-04-20T12:03:15.879Z,9.25
2023-04-20T12:05:43.282Z,8.70
2023-04-20T12:08:10.495Z,8.10
2023-04-20T12:10:37.451Z,7.22
2023-04-20T12:13:04.481Z,6.35
2023-04-20T12:15:31.589Z,4.72
2023-04-20T12:17:58.549Z,8.75
2023-04-20T12:20:25.752Z,4.30
2023-04-20T12:22:52.726Z,8.18
2023-04-20T12:25:20.601Z,6.38
2023-04-20T12:27:49.439Z,4.22
2023-04-20T12:30:17.078Z,7.90
2023-04-20T12:32:44.140Z,6.63
2023-04-20T12:35:10.961Z,6.63
2023-04-20T12:37:37.785Z,3.60
2023-04-20T12:40:06.404Z,5.15
2023-04-20T12:42:33.370Z,6.95
2023-04-20T12:45:00.539Z,10.95
2023-04-20T12:47:27.377Z,9.25
2023-04-20T12:49:55.084Z,6.55
2023-04-20T12:52:22.015Z,8.52
2023-04-20T12:54:48.813Z,6.78
2023-04-20T12:57:15.640Z,4.40
2023-04-20T12:59:43.022Z,12.38
2023-04-20T13:02:10.455Z,5.22
2023-04-20T13:04:37.556Z,4.53
2023-04-20T13:07:04.620Z,5.82
2023-04-20T13:09:32.451Z,5.75
2023-04-20T13:11:59.297Z,4.60
2023-04-20T13:14:26.744Z,7.15
2023-04-20T13:16:55.344Z,7.45
2023-04-20T13:19:22.658Z,6.22
2023-04-20T13:21:49.687Z,6.13
2023-04-20T13:24:16.665Z,8.10
2023-04-20T13:26:43.819Z,8.02
2023-04-20T13:29:11.193Z,5.82
2023-04-20T13:31:40.641Z,7.47
2023-04-20T13:34:07.701Z,6.97
2023-04-20T13:36:34.439Z,3.95
2023-04-20T13:39:01.868Z,7.85
2023-04-20T13:41:28.728Z,5.78
2023-04-20T13:43:57.803Z,7.07
2023-04-20T13:46:24.708Z,9.57
2023-04-20T13:48:51.767Z,6.90
2023-04-20T13:51:18.611Z,5.85
2023-04-20T13:53:45.477Z,4.97
2023-04-20T13:56:12.260Z,5.93
2023-04-20T13:58:39.155Z,5.68
2023-04-20T14:01:13.447Z,6.57
2023-04-20T14:03:41.868Z,5.63
2023-04-20T14:06:08.936Z,5.40
2023-04-20T14:08:36.273Z,6.20
2023-04-20T14:11:03.192Z,3.65
2023-04-20T14:13:30.254Z,8.95
2023-04-20T14:15:57.500Z,5.43
2023-04-20T14:18:24.382Z,5.57
2023-04-20T14:20:52.464Z,4.15
2023-04-20T14:23:19.778Z,5.38
2023-04-20T14:25:46.836Z,8.95
2023-04-20T14:28:15.073Z,6.85
2023-04-20T14:30:43.280Z,7.35
2023-04-20T14:33:10.095Z,6.60
2023-04-20T14:35:37.241Z,6.95
2023-04-20T14:38:04.375Z,7.80
2023-04-20T14:40:32.271Z,6.70
2023-04-20T14:42:59.445Z,10.00
2023-04-20T14:45:26.628Z,7.97
2023-04-20T14:47:55.049Z,7.53
2023-04-20T14:50:22.965Z,6.55
2023-04-20T14:52:53.833Z,9.70
2023-04-20T14:55:25.947Z,6.90
2023-04-20T14:57:56.305Z,5.82
2023-04-20T15:00:25.005Z,7.30
2023-04-20T15:02:52.829Z,3.92
2023-04-20T15:05:20.186Z,8.70
2023-04-20T15:07:50.612Z,5.10
2023-04-20T15:10:19.055Z,5.38
2023-04-20T15:12:46.748Z,8.35
2023-04-20T15:15:13.592Z,7.65
2023-04-20T15:17:40.446Z,10.90
2023-04-20T15:20:08.881Z,7.40
2023-04-20T15:22:36.731Z,7.90
2023-04-20T15:25:03.770Z,9.88
2023-04-20T15:27:30.608Z,7.43
2023-04-20T15:30:00.288Z,9.70
2023-04-20T15:32:27.339Z,7.97
2023-04-20T15:34:54.099Z,6.75
2023-04-20T15:37:20.944Z,16.30
2023-04-20T15:39:47.665Z,6.50
2023-04-20T15:42:14.479Z,5.40
2023-04-20T15:44:43.912Z,6.82
2023-04-20T15:47:10.858Z,6.63
2023-04-20T15:49:40.648Z,5.05
2023-04-20T15:52:11.137Z,4.50
2023-04-20T15:54:38.281Z,8.48
2023-04-20T15:57:05.003Z,7.97
2023-04-20T15:59:32.314Z,8.27
2023-04-20T16:01:59.224Z,9.70
2023-04-20T16:04:26.311Z,7.55
2023-04-20T16:06:53.255Z,6.60
2023-04-20T16:09:21.768Z,7.53
2023-04-20T16:11:50.411Z,7.47
2023-04-20T16:14:17.468Z,6.15
2023-04-20T16:16:44.318Z,7.80
2023-04-20T16:19:13.192Z,11.23
2023-04-20T16:21:39.968Z,6.22
2023-04-20T16:24:07.164Z,8.55
2023-04-20T16:26:34.233Z,5.97
2023-04-20T16:29:01.230Z,6.00
2023-04-20T16:31:29.681Z,8.32
2023-04-20T16:33:58.884Z,7.97
2023-04-20T16:36:27.070Z,9.48
2023-04-20T16:38:53.970Z,7.57
2023-04-20T16:41:22.586Z,5.78
2023-04-20T16:43:49.417Z,6.72
2023-04-20T16:46:18.018Z,6.47
2023-04-20T16:48:45.022Z,6.15
2023-04-20T16:51:11.896Z,9.35
2023-04-20T16:53:38.720Z,7.85
2023-04-20T16:56:05.753Z,8.30
2023-04-20T16:58:32.662Z,8.57
2023-04-20T17:00:59.844Z,10.98
2023-04-20T17:03:27.101Z,8.40
2023-04-20T17:05:54.105Z,9.52
2023-04-20T17:08:21.620Z,8.32
2023-04-20T17:10:48.476Z,11.48
2023-04-20T17:13:15.550Z,9.07
2023-04-20T17:15:45.328Z,8.77
2023-04-20T17:18:12.633Z,9.52
2023-04-20T17:20:42.092Z,6.45
2023-04-20T17:23:09.098Z,10.68
2023-04-20T17:25:36.023Z,15.57
2023-04-20T17:28:03.619Z,10.85
2023-04-20T17:30:30.556Z,9.38
2023-04-20T17:32:59.272Z,9.40
2023-04-20T17:35:27.208Z,10.35
2023-04-20T17:37:54.035Z,10.63
2023-04-20T17:40:20.904Z,8.68
2023-04-20T17:42:47.733Z,11.15
2023-04-20T17:45:14.607Z,9.38
2023-04-20T17:47:41.426Z,7.32
2023-04-20T17:50:08.843Z,13.50
2023-04-20T17:52:35.822Z,7.88
2023-04-20T17:55:03.005Z,15.02
2023-04-20T17:57:31.023Z,13.57
2023-04-20T17:59:59.029Z,14.45
2023-04-20T18:02:26.175Z,11.95
2023-04-20T18:04:57.643Z,16.45
2023-04-20T18:07:25.071Z,19.13
2023-04-20T18:09:51.791Z,15.13
2023-04-20T18:12:18.961Z,14.32
2023-04-20T18:14:45.838Z,13.27
2023-04-20T18:17:12.825Z,15.88
2023-04-20T18:19:40.964Z,21.80
2023-04-20T18:22:08.096Z,20.58
2023-04-20T18:24:34.828Z,16.40
2023-04-20T18:27:02.017Z,20.63
2023-04-20T18:29:29.872Z,14.75
2023-04-20T18:31:59.336Z,17.92
2023-04-20T18:34:29.956Z,18.70
2023-04-20T18:36:57.278Z,17.30
2023-04-20T18:39:26.231Z,17.92
2023-04-20T18:41:52.966Z,19.15
2023-04-20T18:44:20.131Z,20.67
2023-04-20T18:46:47.183Z,23.38
2023-04-20T18:49:14.455Z,15.52
2023-04-20T18:51:41.216Z,20.95
2023-04-20T18:54:07.951Z,13.85
2023-04-20T18:56:36.888Z,15.32
2023-04-20T18:59:04.407Z,17.10
2023-04-20T19:01:32.592Z,15.15
2023-04-20T19:04:00.010Z,23.63
2023-04-20T19:06:27.997Z,19.38
2023-04-20T19:08:55.943Z,23.45
2023-04-20T19:11:23.184Z,19.15
2023-04-20T19:13:49.916Z,23.70
2023-04-20T19:16:16.720Z,29.65
2023-04-20T19:18:44.191Z,33.90
2023-04-20T19:21:11.367Z,29.52
2023-04-20T19:23:38.087Z,26.50
2023-04-20T19:26:04.859Z,26.95
2023-04-20T19:28:31.727Z,23.10
2023-04-20T19:30:59.124Z,25.00
2023-04-20T19:33:25.934Z,19.20
2023-04-20T19:35:52.790Z,18.52
2023-04-20T19:38:26.353Z,24.55
2023-04-20T19:40:53.160Z,24.95
2023-04-20T19:43:19.848Z,20.50
2023-04-20T19:45:46.724Z,23.45
2023-04-20T19:48:13.602Z,21.08
2023-04-20T19:50:40.834Z,23.45
2023-04-20T19:53:07.683Z,24.10
2023-04-20T19:55:34.575Z,24.55
2023-04-20T19:58:01.393Z,23.92
2023-04-20T20:00:28.284Z,19.45
2023-04-20T20:02:55.207Z,29.40
2023-04-20T20:05:22.126Z,22.23
2023-04-20T20:07:48.848Z,25.95
2023-04-20T20:10:15.658Z,26.55
2023-04-20T20:12:42.449Z,26.13
2023-04-20T20:15:09.436Z,24.60
2023-04-20T20:17:36.437Z,28.52
2023-04-20T20:20:06.065Z,22.83
2023-04-20T20:22:34.144Z,26.50
2023-04-20T20:25:01.249Z,23.40
2023-04-20T20:27:28.800Z,22.13
2023-04-20T20:29:55.917Z,24.67
2023-04-20T20:32:23.047Z,38.72
2023-04-20T20:34:50.354Z,23.83
2023-04-20T20:37:17.161Z,26.20
2023-04-20T20:39:44.025Z,22.75
2023-04-20T20:42:12.398Z,19.63
2023-04-20T20:44:40.344Z,21.25
2023-04-20T20:47:07.312Z,19.27
2023-04-20T20:49:34.396Z,19.80
2023-04-20T20:52:02.373Z,17.30
2023-04-20T20:54:29.333Z,20.43
2023-04-20T20:56:56.116Z,17.50
2023-04-20T20:59:22.967Z,21.43
2023-04-20T21:01:49.844Z,17.55
2023-04-20T21:04:16.719Z,15.87
2023-04-20T21:06:43.493Z,19.10
2023-04-20T21:09:10.437Z,20.15
2023-04-20T21:11:37.171Z,22.83
2023-04-20T21:14:04.082Z,17.17
2023-04-20T21:16:31.040Z,18.08
2023-04-20T21:18:58.030Z,19.17
2023-04-20T21:21:24.941Z,19.70
2023-04-20T21:23:51.719Z,17.00
2023-04-20T21:26:18.713Z,16.08
2023-04-20T21:28:46.735Z,15.75
2023-04-20T21:31:13.494Z,17.63
2023-04-20T21:33:40.390Z,18.07
2023-04-20T21:36:08.134Z,17.00
2023-04-20T21:38:34.980Z,18.83
2023-04-20T21:41:01.865Z,16.33
2023-04-20T21:43:28.628Z,20.40
2023-04-20T21:45:55.622Z,17.57
2023-04-20T21:48:22.882Z,17.60
2023-04-20T21:50:49.785Z,19.53
2023-04-20T21:53:16.665Z,18.73
2023-04-20T21:55:43.550Z,17.27
2023-04-20T21:58:10.315Z,18.03
2023-04-20T22:00:37.146Z,17.47
2023-04-20T22:03:05.134Z,16.67
2023-04-20T22:05:32.162Z,18.40
2023-04-20T22:07:59.041Z,14.47
2023-04-20T22:10:26.814Z,19.27
2023-04-20T22:12:53.584Z,16.53
2023-04-20T22:15:22.323Z,16.70
2023-04-20T22:17:49.299Z,15.20
2023-04-20T22:20:17.256Z,14.13
2023-04-20T22:22:44.108Z,18.17
2023-04-20T22:25:11.302Z,17.97
2023-04-20T22:27:38.568Z,15.07
2023-04-20T22:30:08.779Z,17.93
2023-04-20T22:32:36.884Z,15.83
2023-04-20T22:35:04.100Z,17.50
2023-04-20T22:37:31.117Z,14.93
2023-04-20T22:39:57.925Z,12.30
2023-04-20T22:42:24.804Z,15.70
2023-04-20T22:44:51.622Z,18.57
2023-04-20T22:47:18.560Z,16.03
2023-04-20T22:49:46.766Z,14.60
2023-04-20T22:52:13.709Z,17.77
2023-04-20T22:54:40.663Z,17.60
2023-04-20T22:57:07.676Z,13.30
2023-04-20T22:59:34.482Z,17.43
2023-04-20T23:02:01.542Z,16.27
2023-04-20T23:04:28.475Z,14.67
2023-04-20T23:06:56.457Z,17.37
2023-04-20T23:09:23.958Z,18.20
2023-04-20T23:11:53.754Z,16.23
2023-04-20T23:14:22.579Z,17.07
2023-04-20T23:16:49.965Z,15.20
2023-04-20T23:19:17.293Z,15.67
2023-04-20T23:21:44.447Z,14.37
2023-04-20T23:24:11.285Z,18.27
2023-04-20T23:26:39.296Z,19.73
2023-04-20T23:29:06.334Z,17.60
2023-04-20T23:31:33.357Z,18.50
2023-04-20T23:34:00.305Z,20.87
2023-04-20T23:36:27.297Z,18.43
2023-04-20T23:38:54.147Z,17.80
2023-04-20T23:41:21.145Z,22.23
2023-04-20T23:43:48.131Z,16.07
2023-04-20T23:46:15.306Z,17.47
2023-04-20T23:48:42.228Z,18.70
2023-04-20T23:51:09.172Z,14.60
2023-04-20T23:53:37.407Z,20.43
2023-04-20T23:56:05.297Z,21.90
2023-04-20T23:58:32.456Z,19.23
